sensor_id;sensor_type;location;lat;lon;timestamp;temperature;humidity
5834;DHT22;2943;48.012;10.968;2023-05-07T00:02:08;13.40;99.90
5834;DHT22;2943;48.012;10.968;2023-05-07T00:04:35;13.40;99.90
5834;DHT22;2943;48.012;10.968;2023-05-07T00:07:03;13.40;99.90
5834;DHT22;2943;48.012;10.968;2023-05-07T00:09:30;13.30;99.90
5834;DHT22;2943;48.012;10.968;2023-05-07T00:11:58;13.30;99.90
5834;DHT22;2943;48.012;10.968;2023-05-07T00:14:25;13.30;99.90
5834;DHT22;2943;48.012;10.968;2023-05-07T00:16:52;13.20;99.90
5834;DHT22;2943;48.012;10.968;2023-05-07T00:19:19;13.20;99.90
5834;DHT22;2943;48.012;10.968;2023-05-07T00:21:46;13.20;99.90
5834;DHT22;2943;48.012;10.968;2023-05-07T00:24:13;13.20;99.90
5834;DHT22;2943;48.012;10.968;2023-05-07T00:26:40;13.10;99.90
5834;DHT22;2943;48.012;10.968;2023-05-07T00:29:09;13.10;99.90
5834;DHT22;2943;48.012;10.968;2023-05-07T00:31:36;13.10;99.90
5834;DHT22;2943;48.012;10.968;2023-05-07T00:34:03;13.10;99.90
5834;DHT22;2943;48.012;10.968;2023-05-07T00:36:30;13.10;99.90
5834;DHT22;2943;48.012;10.968;2023-05-07T00:38:59;13.10;99.90
5834;DHT22;2943;48.012;10.968;2023-05-07T00:41:27;13.10;99.90
5834;DHT22;2943;48.012;10.968;2023-05-07T00:43:54;13.10;99.90
5834;DHT22;2943;48.012;10.968;2023-05-07T00:46:23;13.00;99.90
5834;DHT22;2943;48.012;10.968;2023-05-07T00:48:50;13.00;99.90
5834;DHT22;2943;48.012;10.968;2023-05-07T00:51:17;13.00;99.90
5834;DHT22;2943;48.012;10.968;2023-05-07T00:53:45;12.90;99.90
5834;DHT22;2943;48.012;10.968;2023-05-07T00:56:13;12.80;99.90
5834;DHT22;2943;48.012;10.968;2023-05-07T00:58:40;12.90;99.90
5834;DHT22;2943;48.012;10.968;2023-05-07T01:01:09;12.80;99.90
5834;DHT22;2943;48.012;10.968;2023-05-07T01:03:38;12.80;99.90
5834;DHT22;2943;48.012;10.968;2023-05-07T01:06:08;12.80;99.90
5834;DHT22;2943;48.012;10.968;2023-05-07T01:08:38;12.70;99.90
5834;DHT22;2943;48.012;10.968;2023-05-07T01:11:07;12.70;99.90
5834;DHT22;2943;48.012;10.968;2023-05-07T01:13:35;12.80;99.90
5834;DHT22;2943;48.012;10.968;2023-05-07T01:16:03;12.70;99.90
5834;DHT22;2943;48.012;10.968;2023-05-07T01:18:30;12.70;99.90
5834;DHT22;2943;48.012;10.968;2023-05-07T01:20:59;12.70;99.90
5834;DHT22;2943;48.012;10.968;2023-05-07T01:23:30;12.70;99.90
5834;DHT22;2943;48.012;10.968;2023-05-07T01:25:57;12.70;99.90
5834;DHT22;2943;48.012;10.968;2023-05-07T01:28:24;12.70;99.90
5834;DHT22;2943;48.012;10.968;2023-05-07T01:30:53;12.70;99.90
5834;DHT22;2943;48.012;10.968;2023-05-07T01:33:21;12.60;99.90
5834;DHT22;2943;48.012;10.968;2023-05-07T01:35:51;12.60;99.90
5834;DHT22;2943;48.012;10.968;2023-05-07T01:38:20;12.50;99.90
5834;DHT22;2943;48.012;10.968;2023-05-07T01:40:50;12.60;99.90
5834;DHT22;2943;48.012;10.968;2023-05-07T01:43:17;12.60;99.90
5834;DHT22;2943;48.012;10.968;2023-05-07T01:45:45;12.60;99.90
5834;DHT22;2943;48.012;10.968;2023-05-07T01:48:12;12.50;99.90
5834;DHT22;2943;48.012;10.968;2023-05-07T01:50:41;12.50;99.90
5834;DHT22;2943;48.012;10.968;2023-05-07T01:53:09;12.50;99.90
5834;DHT22;2943;48.012;10.968;2023-05-07T01:55:36;12.50;99.90
5834;DHT22;2943;48.012;10.968;2023-05-07T01:58:04;12.50;99.90
5834;DHT22;2943;48.012;10.968;2023-05-07T02:00:32;12.50;99.90
5834;DHT22;2943;48.012;10.968;2023-05-07T02:02:59;12.50;99.90
5834;DHT22;2943;48.012;10.968;2023-05-07T02:05:26;12.50;99.90
5834;DHT22;2943;48.012;10.968;2023-05-07T02:07:53;12.50;99.90
5834;DHT22;2943;48.012;10.968;2023-05-07T02:10:19;12.50;99.90
5834;DHT22;2943;48.012;10.968;2023-05-07T02:12:46;12.50;99.90
5834;DHT22;2943;48.012;10.968;2023-05-07T02:15:15;12.40;99.90
5834;DHT22;2943;48.012;10.968;2023-05-07T02:17:59;12.50;99.90
5834;DHT22;2943;48.012;10.968;2023-05-07T02:20:27;12.40;99.90
5834;DHT22;2943;48.012;10.968;2023-05-07T02:22:54;12.40;99.90
5834;DHT22;2943;48.012;10.968;2023-05-07T02:25:21;12.40;99.90
5834;DHT22;2943;48.012;10.968;2023-05-07T02:27:48;12.40;99.90
5834;DHT22;2943;48.012;10.968;2023-05-07T02:30:16;12.40;99.90
5834;DHT22;2943;48.012;10.968;2023-05-07T02:32:43;12.30;99.90
5834;DHT22;2943;48.012;10.968;2023-05-07T02:35:10;12.40;99.90
5834;DHT22;2943;48.012;10.968;2023-05-07T02:37:37;12.30;99.90
5834;DHT22;2943;48.012;10.968;2023-05-07T02:40:05;12.30;99.90
5834;DHT22;2943;48.012;10.968;2023-05-07T02:42:32;12.20;99.90
5834;DHT22;2943;48.012;10.968;2023-05-07T02:44:59;12.20;99.90
5834;DHT22;2943;48.012;10.968;2023-05-07T02:47:27;12.20;99.90
5834;DHT22;2943;48.012;10.968;2023-05-07T02:49:54;12.20;99.90
5834;DHT22;2943;48.012;10.968;2023-05-07T02:52:21;12.20;99.90
5834;DHT22;2943;48.012;10.968;2023-05-07T02:54:48;12.10;99.90
5834;DHT22;2943;48.012;10.968;2023-05-07T02:57:15;12.00;99.90
5834;DHT22;2943;48.012;10.968;2023-05-07T02:59:42;12.00;99.90
5834;DHT22;2943;48.012;10.968;2023-05-07T03:02:09;12.10;99.90
5834;DHT22;2943;48.012;10.968;2023-05-07T03:04:38;12.10;99.90
5834;DHT22;2943;48.012;10.968;2023-05-07T03:07:05;12.10;99.90
5834;DHT22;2943;48.012;10.968;2023-05-07T03:09:32;12.00;99.90
5834;DHT22;2943;48.012;10.968;2023-05-07T03:11:59;12.00;99.90
5834;DHT22;2943;48.012;10.968;2023-05-07T03:14:27;12.00;99.90
5834;DHT22;2943;48.012;10.968;2023-05-07T03:16:54;12.00;99.90
5834;DHT22;2943;48.012;10.968;2023-05-07T03:19:21;12.00;99.90
5834;DHT22;2943;48.012;10.968;2023-05-07T03:21:49;12.00;99.90
5834;DHT22;2943;48.012;10.968;2023-05-07T03:24:16;12.00;99.90
5834;DHT22;2943;48.012;10.968;2023-05-07T03:26:43;12.00;99.90
5834;DHT22;2943;48.012;10.968;2023-05-07T03:29:09;12.00;99.90
5834;DHT22;2943;48.012;10.968;2023-05-07T03:31:36;12.00;99.90
5834;DHT22;2943;48.012;10.968;2023-05-07T03:34:04;11.90;99.90
5834;DHT22;2943;48.012;10.968;2023-05-07T03:36:31;11.90;99.90
5834;DHT22;2943;48.012;10.968;2023-05-07T03:38:59;11.90;99.90
5834;DHT22;2943;48.012;10.968;2023-05-07T03:41:26;11.90;99.90
5834;DHT22;2943;48.012;10.968;2023-05-07T03:43:55;11.90;99.90
5834;DHT22;2943;48.012;10.968;2023-05-07T03:46:22;11.90;99.90
5834;DHT22;2943;48.012;10.968;2023-05-07T03:48:51;11.90;99.90
5834;DHT22;2943;48.012;10.968;2023-05-07T03:51:18;11.80;99.90
5834;DHT22;2943;48.012;10.968;2023-05-07T03:53:45;11.80;99.90
5834;DHT22;2943;48.012;10.968;2023-05-07T03:56:13;11.80;99.90
5834;DHT22;2943;48.012;10.968;2023-05-07T03:58:40;11.80;99.90
5834;DHT22;2943;48.012;10.968;2023-05-07T04:01:07;11.80;99.90
5834;DHT22;2943;48.012;10.968;2023-05-07T04:03:34;11.70;99.90
5834;DHT22;2943;48.012;10.968;2023-05-07T04:06:01;11.70;99.90
5834;DHT22;2943;48.012;10.968;2023-05-07T04:08:28;11.70;99.90
5834;DHT22;2943;48.012;10.968;2023-05-07T04:10:55;11.70;99.90
5834;DHT22;2943;48.012;10.968;2023-05-07T04:13:24;11.60;99.90
5834;DHT22;2943;48.012;10.968;2023-05-07T04:15:51;11.60;99.90
5834;DHT22;2943;48.012;10.968;2023-05-07T04:18:18;11.60;99.90
5834;DHT22;2943;48.012;10.968;2023-05-07T04:20:45;11.60;99.90
5834;DHT22;2943;48.012;10.968;2023-05-07T04:23:12;11.60;99.90
5834;DHT22;2943;48.012;10.968;2023-05-07T04:25:39;11.50;99.90
5834;DHT22;2943;48.012;10.968;2023-05-07T04:28:07;11.50;99.90
5834;DHT22;2943;48.012;10.968;2023-05-07T04:30:35;11.50;99.90
5834;DHT22;2943;48.012;10.968;2023-05-07T04:33:02;11.50;99.90
5834;DHT22;2943;48.012;10.968;2023-05-07T04:35:29;11.50;99.90
5834;DHT22;2943;48.012;10.968;2023-05-07T04:37:56;11.50;99.90
5834;DHT22;2943;48.012;10.968;2023-05-07T04:40:23;11.50;99.90
5834;DHT22;2943;48.012;10.968;2023-05-07T04:42:50;11.50;99.90
5834;DHT22;2943;48.012;10.968;2023-05-07T04:45:18;11.60;99.90
5834;DHT22;2943;48.012;10.968;2023-05-07T04:47:47;11.50;99.90
5834;DHT22;2943;48.012;10.968;2023-05-07T04:50:13;11.50;99.90
5834;DHT22;2943;48.012;10.968;2023-05-07T04:52:41;11.50;99.90
5834;DHT22;2943;48.012;10.968;2023-05-07T04:55:08;11.60;99.90
5834;DHT22;2943;48.012;10.968;2023-05-07T04:57:35;11.50;99.90
5834;DHT22;2943;48.012;10.968;2023-05-07T05:00:04;11.60;99.90
5834;DHT22;2943;48.012;10.968;2023-05-07T05:02:31;11.60;99.90
5834;DHT22;2943;48.012;10.968;2023-05-07T05:05:00;11.60;99.90
5834;DHT22;2943;48.012;10.968;2023-05-07T05:07:27;11.60;99.90
5834;DHT22;2943;48.012;10.968;2023-05-07T05:09:54;11.60;99.90
5834;DHT22;2943;48.012;10.968;2023-05-07T05:12:21;11.50;99.90
5834;DHT22;2943;48.012;10.968;2023-05-07T05:14:48;11.50;99.90
5834;DHT22;2943;48.012;10.968;2023-05-07T05:17:14;11.50;99.90
5834;DHT22;2943;48.012;10.968;2023-05-07T05:19:41;11.50;99.90
5834;DHT22;2943;48.012;10.968;2023-05-07T05:22:10;11.50;99.90
5834;DHT22;2943;48.012;10.968;2023-05-07T05:24:37;11.50;99.90
5834;DHT22;2943;48.012;10.968;2023-05-07T05:27:04;11.60;99.90
5834;DHT22;2943;48.012;10.968;2023-05-07T05:29:31;11.60;99.90
5834;DHT22;2943;48.012;10.968;2023-05-07T05:31:58;11.70;99.90
5834;DHT22;2943;48.012;10.968;2023-05-07T05:34:24;11.70;99.90
5834;DHT22;2943;48.012;10.968;2023-05-07T05:36:51;11.80;99.90
5834;DHT22;2943;48.012;10.968;2023-05-07T05:39:20;11.70;99.90
5834;DHT22;2943;48.012;10.968;2023-05-07T05:41:48;11.80;99.90
5834;DHT22;2943;48.012;10.968;2023-05-07T05:44:15;11.80;99.90
5834;DHT22;2943;48.012;10.968;2023-05-07T05:46:42;11.80;99.90
5834;DHT22;2943;48.012;10.968;2023-05-07T05:49:09;11.90;99.90
5834;DHT22;2943;48.012;10.968;2023-05-07T05:51:36;11.90;99.90
5834;DHT22;2943;48.012;10.968;2023-05-07T05:54:03;12.00;99.90
5834;DHT22;2943;48.012;10.968;2023-05-07T05:56:31;12.10;99.90
5834;DHT22;2943;48.012;10.968;2023-05-07T05:58:58;12.10;99.90
5834;DHT22;2943;48.012;10.968;2023-05-07T06:01:25;12.20;99.90
5834;DHT22;2943;48.012;10.968;2023-05-07T06:03:52;12.30;99.90
5834;DHT22;2943;48.012;10.968;2023-05-07T06:06:19;12.50;99.90
5834;DHT22;2943;48.012;10.968;2023-05-07T06:08:46;12.50;99.90
5834;DHT22;2943;48.012;10.968;2023-05-07T06:11:13;12.60;99.90
5834;DHT22;2943;48.012;10.968;2023-05-07T06:13:41;12.70;99.90
5834;DHT22;2943;48.012;10.968;2023-05-07T06:16:08;12.90;99.90
5834;DHT22;2943;48.012;10.968;2023-05-07T06:18:35;13.00;99.90
5834;DHT22;2943;48.012;10.968;2023-05-07T06:21:02;13.10;99.90
5834;DHT22;2943;48.012;10.968;2023-05-07T06:23:29;13.20;99.90
5834;DHT22;2943;48.012;10.968;2023-05-07T06:25:56;13.40;99.90
5834;DHT22;2943;48.012;10.968;2023-05-07T06:28:23;13.50;99.90
5834;DHT22;2943;48.012;10.968;2023-05-07T06:30:51;13.60;99.90
5834;DHT22;2943;48.012;10.968;2023-05-07T06:33:18;13.70;99.90
5834;DHT22;2943;48.012;10.968;2023-05-07T06:35:46;13.90;99.90
5834;DHT22;2943;48.012;10.968;2023-05-07T06:38:13;13.90;99.90
5834;DHT22;2943;48.012;10.968;2023-05-07T06:40:40;14.00;99.90
5834;DHT22;2943;48.012;10.968;2023-05-07T06:43:07;14.10;99.90
5834;DHT22;2943;48.012;10.968;2023-05-07T06:45:34;14.30;99.90
5834;DHT22;2943;48.012;10.968;2023-05-07T06:48:03;14.40;99.90
5834;DHT22;2943;48.012;10.968;2023-05-07T06:50:30;14.40;99.90
5834;DHT22;2943;48.012;10.968;2023-05-07T06:52:57;14.50;99.90
5834;DHT22;2943;48.012;10.968;2023-05-07T06:55:24;14.60;99.90
5834;DHT22;2943;48.012;10.968;2023-05-07T06:57:51;14.70;99.90
5834;DHT22;2943;48.012;10.968;2023-05-07T07:00:19;14.80;99.90
5834;DHT22;2943;48.012;10.968;2023-05-07T07:02:49;14.90;99.90
5834;DHT22;2943;48.012;10.968;2023-05-07T07:05:20;15.00;99.90
5834;DHT22;2943;48.012;10.968;2023-05-07T07:07:47;15.10;99.90
5834;DHT22;2943;48.012;10.968;2023-05-07T07:10:18;15.30;99.90
5834;DHT22;2943;48.012;10.968;2023-05-07T07:12:45;15.40;99.90
5834;DHT22;2943;48.012;10.968;2023-05-07T07:15:13;15.50;99.90
5834;DHT22;2943;48.012;10.968;2023-05-07T07:17:40;15.60;99.90
5834;DHT22;2943;48.012;10.968;2023-05-07T07:20:08;15.70;99.90
5834;DHT22;2943;48.012;10.968;2023-05-07T07:22:36;15.80;99.90
5834;DHT22;2943;48.012;10.968;2023-05-07T07:25:04;15.90;99.90
5834;DHT22;2943;48.012;10.968;2023-05-07T07:27:31;16.00;99.90
5834;DHT22;2943;48.012;10.968;2023-05-07T07:29:58;16.00;99.90
5834;DHT22;2943;48.012;10.968;2023-05-07T07:32:25;16.10;99.90
5834;DHT22;2943;48.012;10.968;2023-05-07T07:34:52;16.20;99.90
5834;DHT22;2943;48.012;10.968;2023-05-07T07:37:19;16.30;99.90
5834;DHT22;2943;48.012;10.968;2023-05-07T07:39:47;16.40;99.90
5834;DHT22;2943;48.012;10.968;2023-05-07T07:42:14;16.50;99.90
5834;DHT22;2943;48.012;10.968;2023-05-07T07:44:41;16.50;99.90
5834;DHT22;2943;48.012;10.968;2023-05-07T07:47:08;16.60;99.90
5834;DHT22;2943;48.012;10.968;2023-05-07T07:49:35;16.70;99.90
5834;DHT22;2943;48.012;10.968;2023-05-07T07:52:02;16.80;99.90
5834;DHT22;2943;48.012;10.968;2023-05-07T07:54:29;16.90;99.90
5834;DHT22;2943;48.012;10.968;2023-05-07T07:56:58;16.90;99.90
5834;DHT22;2943;48.012;10.968;2023-05-07T07:59:26;17.00;99.90
5834;DHT22;2943;48.012;10.968;2023-05-07T08:01:53;17.10;99.90
5834;DHT22;2943;48.012;10.968;2023-05-07T08:04:23;17.20;99.90
5834;DHT22;2943;48.012;10.968;2023-05-07T08:06:52;17.20;99.90
5834;DHT22;2943;48.012;10.968;2023-05-07T08:09:20;17.30;99.90
5834;DHT22;2943;48.012;10.968;2023-05-07T08:11:47;17.40;99.90
5834;DHT22;2943;48.012;10.968;2023-05-07T08:14:15;17.50;99.90
5834;DHT22;2943;48.012;10.968;2023-05-07T08:16:42;17.60;99.90
5834;DHT22;2943;48.012;10.968;2023-05-07T08:19:10;17.70;99.90
5834;DHT22;2943;48.012;10.968;2023-05-07T08:21:43;17.70;99.90
5834;DHT22;2943;48.012;10.968;2023-05-07T08:24:13;17.80;99.90
5834;DHT22;2943;48.012;10.968;2023-05-07T08:26:40;17.90;99.90
5834;DHT22;2943;48.012;10.968;2023-05-07T08:29:07;17.90;99.90
5834;DHT22;2943;48.012;10.968;2023-05-07T08:31:35;18.00;99.90
5834;DHT22;2943;48.012;10.968;2023-05-07T08:34:04;18.00;99.90
5834;DHT22;2943;48.012;10.968;2023-05-07T08:36:32;18.10;99.90
5834;DHT22;2943;48.012;10.968;2023-05-07T08:38:59;18.20;99.90
5834;DHT22;2943;48.012;10.968;2023-05-07T08:41:26;18.20;99.90
5834;DHT22;2943;48.012;10.968;2023-05-07T08:43:57;18.30;99.90
5834;DHT22;2943;48.012;10.968;2023-05-07T08:46:25;18.40;99.90
5834;DHT22;2943;48.012;10.968;2023-05-07T08:48:55;18.50;99.90
5834;DHT22;2943;48.012;10.968;2023-05-07T08:51:22;18.60;99.90
5834;DHT22;2943;48.012;10.968;2023-05-07T08:53:49;18.70;99.90
5834;DHT22;2943;48.012;10.968;2023-05-07T08:56:17;18.80;99.90
5834;DHT22;2943;48.012;10.968;2023-05-07T08:58:46;18.80;99.90
5834;DHT22;2943;48.012;10.968;2023-05-07T09:01:14;18.90;99.90
5834;DHT22;2943;48.012;10.968;2023-05-07T09:03:42;18.90;99.90
5834;DHT22;2943;48.012;10.968;2023-05-07T09:06:12;19.00;99.90
5834;DHT22;2943;48.012;10.968;2023-05-07T09:08:39;19.10;99.90
5834;DHT22;2943;48.012;10.968;2023-05-07T09:11:06;19.10;99.90
5834;DHT22;2943;48.012;10.968;2023-05-07T09:13:33;19.20;99.90
5834;DHT22;2943;48.012;10.968;2023-05-07T09:16:10;19.30;99.90
5834;DHT22;2943;48.012;10.968;2023-05-07T09:18:41;19.40;99.90
5834;DHT22;2943;48.012;10.968;2023-05-07T09:21:19;19.50;99.90
5834;DHT22;2943;48.012;10.968;2023-05-07T09:23:49;19.60;99.90
5834;DHT22;2943;48.012;10.968;2023-05-07T09:26:18;19.60;99.90
5834;DHT22;2943;48.012;10.968;2023-05-07T09:28:45;19.70;99.90
5834;DHT22;2943;48.012;10.968;2023-05-07T09:31:13;19.80;99.90
5834;DHT22;2943;48.012;10.968;2023-05-07T09:33:40;19.80;99.90
5834;DHT22;2943;48.012;10.968;2023-05-07T09:36:08;19.90;99.90
5834;DHT22;2943;48.012;10.968;2023-05-07T09:38:37;19.90;99.90
5834;DHT22;2943;48.012;10.968;2023-05-07T09:41:06;20.00;99.90
5834;DHT22;2943;48.012;10.968;2023-05-07T09:43:34;20.10;99.90
5834;DHT22;2943;48.012;10.968;2023-05-07T09:46:07;20.20;99.90
5834;DHT22;2943;48.012;10.968;2023-05-07T09:48:38;20.30;99.90
5834;DHT22;2943;48.012;10.968;2023-05-07T09:51:12;20.40;99.90
5834;DHT22;2943;48.012;10.968;2023-05-07T09:53:41;20.50;99.90
5834;DHT22;2943;48.012;10.968;2023-05-07T09:56:08;20.60;99.90
5834;DHT22;2943;48.012;10.968;2023-05-07T09:58:37;20.80;99.90
5834;DHT22;2943;48.012;10.968;2023-05-07T10:01:06;20.90;99.90
5834;DHT22;2943;48.012;10.968;2023-05-07T10:03:34;21.00;99.90
5834;DHT22;2943;48.012;10.968;2023-05-07T10:06:02;21.10;99.90
5834;DHT22;2943;48.012;10.968;2023-05-07T10:08:30;21.20;99.90
5834;DHT22;2943;48.012;10.968;2023-05-07T10:10:59;21.30;99.90
5834;DHT22;2943;48.012;10.968;2023-05-07T10:13:26;21.40;99.90
5834;DHT22;2943;48.012;10.968;2023-05-07T10:15:54;21.50;99.90
5834;DHT22;2943;48.012;10.968;2023-05-07T10:18:22;21.70;99.90
5834;DHT22;2943;48.012;10.968;2023-05-07T10:21:01;21.80;99.90
5834;DHT22;2943;48.012;10.968;2023-05-07T10:23:29;21.90;99.90
5834;DHT22;2943;48.012;10.968;2023-05-07T10:26:00;22.00;99.90
5834;DHT22;2943;48.012;10.968;2023-05-07T10:28:29;22.10;99.90
5834;DHT22;2943;48.012;10.968;2023-05-07T10:31:05;22.10;99.90
5834;DHT22;2943;48.012;10.968;2023-05-07T10:33:35;22.30;99.90
5834;DHT22;2943;48.012;10.968;2023-05-07T10:36:03;22.30;99.90
5834;DHT22;2943;48.012;10.968;2023-05-07T10:38:31;22.30;99.90
5834;DHT22;2943;48.012;10.968;2023-05-07T10:40:59;22.20;99.90
5834;DHT22;2943;48.012;10.968;2023-05-07T10:43:39;22.10;99.90
5834;DHT22;2943;48.012;10.968;2023-05-07T10:46:10;22.20;99.90
5834;DHT22;2943;48.012;10.968;2023-05-07T10:49:06;22.30;99.90
5834;DHT22;2943;48.012;10.968;2023-05-07T10:51:34;22.40;99.90
5834;DHT22;2943;48.012;10.968;2023-05-07T10:54:21;22.60;99.90
5834;DHT22;2943;48.012;10.968;2023-05-07T10:56:50;22.80;99.90
5834;DHT22;2943;48.012;10.968;2023-05-07T10:59:34;22.90;99.90
5834;DHT22;2943;48.012;10.968;2023-05-07T11:02:07;23.10;99.90
5834;DHT22;2943;48.012;10.968;2023-05-07T11:04:35;23.20;99.90
5834;DHT22;2943;48.012;10.968;2023-05-07T11:07:31;23.10;99.90
5834;DHT22;2943;48.012;10.968;2023-05-07T11:09:59;23.00;99.90
5834;DHT22;2943;48.012;10.968;2023-05-07T11:12:53;23.00;99.90
5834;DHT22;2943;48.012;10.968;2023-05-07T11:15:41;23.00;99.90
5834;DHT22;2943;48.012;10.968;2023-05-07T11:18:12;23.10;99.90
5834;DHT22;2943;48.012;10.968;2023-05-07T11:20:51;23.20;99.90
5834;DHT22;2943;48.012;10.968;2023-05-07T11:23:54;23.20;99.90
5834;DHT22;2943;48.012;10.968;2023-05-07T11:26:22;23.40;99.90
5834;DHT22;2943;48.012;10.968;2023-05-07T11:28:51;23.50;99.90
5834;DHT22;2943;48.012;10.968;2023-05-07T11:31:22;23.50;99.90
5834;DHT22;2943;48.012;10.968;2023-05-07T11:33:51;23.50;99.90
5834;DHT22;2943;48.012;10.968;2023-05-07T11:36:18;23.50;99.90
5834;DHT22;2943;48.012;10.968;2023-05-07T11:38:46;23.40;99.90
5834;DHT22;2943;48.012;10.968;2023-05-07T11:41:16;23.30;99.90
5834;DHT22;2943;48.012;10.968;2023-05-07T11:43:59;23.40;99.90
5834;DHT22;2943;48.012;10.968;2023-05-07T11:46:28;23.40;99.90
5834;DHT22;2943;48.012;10.968;2023-05-07T11:48:55;23.50;99.90
5834;DHT22;2943;48.012;10.968;2023-05-07T11:51:26;23.50;99.90
5834;DHT22;2943;48.012;10.968;2023-05-07T11:53:53;23.60;99.90
5834;DHT22;2943;48.012;10.968;2023-05-07T11:56:20;23.70;99.90
5834;DHT22;2943;48.012;10.968;2023-05-07T11:58:48;23.70;99.90
5834;DHT22;2943;48.012;10.968;2023-05-07T12:01:17;23.70;99.90
5834;DHT22;2943;48.012;10.968;2023-05-07T12:03:45;23.60;99.90
5834;DHT22;2943;48.012;10.968;2023-05-07T12:06:14;23.50;99.90
5834;DHT22;2943;48.012;10.968;2023-05-07T12:08:42;23.50;99.90
5834;DHT22;2943;48.012;10.968;2023-05-07T12:11:13;23.50;99.90
5834;DHT22;2943;48.012;10.968;2023-05-07T12:13:42;23.40;99.90
5834;DHT22;2943;48.012;10.968;2023-05-07T12:16:09;23.40;99.90
5834;DHT22;2943;48.012;10.968;2023-05-07T12:18:38;23.20;99.90
5834;DHT22;2943;48.012;10.968;2023-05-07T12:21:05;23.10;99.90
5834;DHT22;2943;48.012;10.968;2023-05-07T12:23:34;23.10;99.90
5834;DHT22;2943;48.012;10.968;2023-05-07T12:26:02;23.10;99.90
5834;DHT22;2943;48.012;10.968;2023-05-07T12:28:31;23.10;99.90
5834;DHT22;2943;48.012;10.968;2023-05-07T12:31:07;23.10;99.90
5834;DHT22;2943;48.012;10.968;2023-05-07T12:33:46;23.10;99.90
5834;DHT22;2943;48.012;10.968;2023-05-07T12:36:26;23.10;99.90
5834;DHT22;2943;48.012;10.968;2023-05-07T12:39:06;23.10;99.90
5834;DHT22;2943;48.012;10.968;2023-05-07T12:42:00;23.10;99.90
5834;DHT22;2943;48.012;10.968;2023-05-07T12:45:10;23.10;99.90
5834;DHT22;2943;48.012;10.968;2023-05-07T12:47:46;23.10;99.90
5834;DHT22;2943;48.012;10.968;2023-05-07T12:50:33;23.10;99.90
5834;DHT22;2943;48.012;10.968;2023-05-07T12:53:05;23.20;99.90
5834;DHT22;2943;48.012;10.968;2023-05-07T12:55:41;23.30;99.90
5834;DHT22;2943;48.012;10.968;2023-05-07T12:58:15;23.40;99.90
5834;DHT22;2943;48.012;10.968;2023-05-07T13:00:43;23.60;99.90
5834;DHT22;2943;48.012;10.968;2023-05-07T13:03:10;23.60;99.90
5834;DHT22;2943;48.012;10.968;2023-05-07T13:05:39;23.70;99.90
5834;DHT22;2943;48.012;10.968;2023-05-07T13:08:06;23.70;99.90
5834;DHT22;2943;48.012;10.968;2023-05-07T13:10:35;23.70;99.90
5834;DHT22;2943;48.012;10.968;2023-05-07T13:13:02;23.70;99.90
5834;DHT22;2943;48.012;10.968;2023-05-07T13:15:29;23.80;99.90
5834;DHT22;2943;48.012;10.968;2023-05-07T13:17:56;23.90;99.90
5834;DHT22;2943;48.012;10.968;2023-05-07T13:20:23;23.90;99.90
5834;DHT22;2943;48.012;10.968;2023-05-07T13:22:51;23.90;99.90
5834;DHT22;2943;48.012;10.968;2023-05-07T13:25:18;24.00;99.90
5834;DHT22;2943;48.012;10.968;2023-05-07T13:27:45;24.10;99.90
5834;DHT22;2943;48.012;10.968;2023-05-07T13:30:12;24.10;99.90
5834;DHT22;2943;48.012;10.968;2023-05-07T13:32:40;24.20;99.90
5834;DHT22;2943;48.012;10.968;2023-05-07T13:35:22;24.20;99.90
5834;DHT22;2943;48.012;10.968;2023-05-07T13:38:01;24.30;99.90
5834;DHT22;2943;48.012;10.968;2023-05-07T13:40:28;24.20;99.90
5834;DHT22;2943;48.012;10.968;2023-05-07T13:42:56;24.20;99.90
5834;DHT22;2943;48.012;10.968;2023-05-07T13:45:24;24.10;99.90
5834;DHT22;2943;48.012;10.968;2023-05-07T13:47:52;24.10;99.90
5834;DHT22;2943;48.012;10.968;2023-05-07T13:50:19;24.00;99.90
5834;DHT22;2943;48.012;10.968;2023-05-07T13:52:46;23.90;99.90
5834;DHT22;2943;48.012;10.968;2023-05-07T13:55:17;23.80;99.90
5834;DHT22;2943;48.012;10.968;2023-05-07T13:57:45;23.70;99.90
5834;DHT22;2943;48.012;10.968;2023-05-07T14:00:20;23.50;99.90
5834;DHT22;2943;48.012;10.968;2023-05-07T14:02:56;23.30;99.90
5834;DHT22;2943;48.012;10.968;2023-05-07T14:05:23;23.20;99.90
5834;DHT22;2943;48.012;10.968;2023-05-07T14:10:43;23.00;99.90
5834;DHT22;2943;48.012;10.968;2023-05-07T14:13:10;23.00;99.90
5834;DHT22;2943;48.012;10.968;2023-05-07T14:15:37;22.80;99.90
5834;DHT22;2943;48.012;10.968;2023-05-07T14:18:04;22.80;99.90
5834;DHT22;2943;48.012;10.968;2023-05-07T14:20:31;22.70;99.90
5834;DHT22;2943;48.012;10.968;2023-05-07T14:22:58;22.60;99.90
5834;DHT22;2943;48.012;10.968;2023-05-07T14:25:28;22.60;99.90
5834;DHT22;2943;48.012;10.968;2023-05-07T14:27:59;22.50;99.90
5834;DHT22;2943;48.012;10.968;2023-05-07T14:30:26;22.40;99.90
5834;DHT22;2943;48.012;10.968;2023-05-07T14:32:53;22.40;99.90
5834;DHT22;2943;48.012;10.968;2023-05-07T14:35:22;22.30;99.90
5834;DHT22;2943;48.012;10.968;2023-05-07T14:37:49;22.20;99.90
5834;DHT22;2943;48.012;10.968;2023-05-07T14:40:16;22.20;99.90
5834;DHT22;2943;48.012;10.968;2023-05-07T14:42:43;22.20;99.90
5834;DHT22;2943;48.012;10.968;2023-05-07T14:45:12;22.10;99.90
5834;DHT22;2943;48.012;10.968;2023-05-07T14:47:39;22.00;99.90
5834;DHT22;2943;48.012;10.968;2023-05-07T14:50:06;22.00;99.90
5834;DHT22;2943;48.012;10.968;2023-05-07T14:52:35;21.90;99.90
5834;DHT22;2943;48.012;10.968;2023-05-07T14:55:02;21.80;99.90
5834;DHT22;2943;48.012;10.968;2023-05-07T14:57:29;21.80;99.90
5834;DHT22;2943;48.012;10.968;2023-05-07T15:00:02;21.70;99.90
5834;DHT22;2943;48.012;10.968;2023-05-07T15:02:32;21.70;99.90
5834;DHT22;2943;48.012;10.968;2023-05-07T15:05:03;21.60;99.90
5834;DHT22;2943;48.012;10.968;2023-05-07T15:07:30;21.70;99.90
5834;DHT22;2943;48.012;10.968;2023-05-07T15:09:59;21.60;99.90
5834;DHT22;2943;48.012;10.968;2023-05-07T15:12:26;21.70;99.90
5834;DHT22;2943;48.012;10.968;2023-05-07T15:14:53;21.70;99.90
5834;DHT22;2943;48.012;10.968;2023-05-07T15:17:20;21.70;99.90
5834;DHT22;2943;48.012;10.968;2023-05-07T15:19:49;21.80;99.90
5834;DHT22;2943;48.012;10.968;2023-05-07T15:22:16;21.90;99.90
5834;DHT22;2943;48.012;10.968;2023-05-07T15:24:45;21.90;99.90
5834;DHT22;2943;48.012;10.968;2023-05-07T15:27:12;22.10;99.90
5834;DHT22;2943;48.012;10.968;2023-05-07T15:29:39;22.40;99.90
5834;DHT22;2943;48.012;10.968;2023-05-07T15:32:06;22.60;99.90
5834;DHT22;2943;48.012;10.968;2023-05-07T15:34:33;22.80;99.90
5834;DHT22;2943;48.012;10.968;2023-05-07T15:37:02;23.00;99.90
5834;DHT22;2943;48.012;10.968;2023-05-07T15:39:30;23.10;99.90
5834;DHT22;2943;48.012;10.968;2023-05-07T15:41:57;23.00;99.90
5834;DHT22;2943;48.012;10.968;2023-05-07T15:44:25;22.90;99.90
5834;DHT22;2943;48.012;10.968;2023-05-07T15:46:55;22.90;99.90
5834;DHT22;2943;48.012;10.968;2023-05-07T15:49:22;22.80;99.90
5834;DHT22;2943;48.012;10.968;2023-05-07T15:51:49;22.80;99.90
5834;DHT22;2943;48.012;10.968;2023-05-07T15:54:19;22.90;99.90
5834;DHT22;2943;48.012;10.968;2023-05-07T15:56:46;22.90;99.90
5834;DHT22;2943;48.012;10.968;2023-05-07T15:59:13;23.00;99.90